Mary Alice — WCX9570 — position and weather

sailwx.info

Track history (hours):
 
Tides and Currents Weather Stations Pressure Air Temp Water Temp Dewpoint Dewpoint Depression Visibility Wind Speed Wind Dir Waves Ship Positions

Mary Alice

Owner: Donjon Marine Co., Inc., HILLSIDE, NJ. More information available from US FCC via Universal Licensing System and Coast Guard Vessel Documentation Center.

Last reported at 2016-Jul-27 12:07 UTC. Time now 2016-Jul-27 19:15 UTC.
Position N 40°29' W 073°59'.

Length 21 m; draft 4.8 m.

Type: Towing. MMSI: 366744020.

Date/timePositionNaut miles runAvg speedWind from/ knotsBaromVisibWave heightAir tempDewpointWater temp
2016-Jul-27 12:07N 40°29' W 073°59'1 0.0
2016-Jul-26 20:05N 40°29' W 073°60'2 0.2
2016-Jul-26 13:21N 40°27' W 074°01'0 0.0
2016-Jul-26 12:33N 40°27' W 074°01'0 0.0
2016-Jul-26 11:31N 40°27' W 074°01'1 0.1
2016-Jul-26 04:29N 40°28' W 074°02'1 0.6
2016-Jul-26 03:09N 40°28' W 074°03'0 0.4
2016-Jul-26 02:33N 40°28' W 074°03'0 0.3
2016-Jul-26 01:26N 40°28' W 074°03'0 0.2
2016-Jul-26 00:22N 40°28' W 074°03'4 0.7
2016-Jul-25 19:14N 40°29' W 073°58'1 0.9
2016-Jul-25 18:31N 40°29' W 073°59'5 4.3
2016-Jul-25 17:24N 40°33' W 074°02'5 6.5
2016-Jul-25 16:33N 40°38' W 074°04'2 2.3
2016-Jul-25 15:34N 40°41' W 074°04'8 8.1
2016-Jul-25 14:31N 40°32' W 074°02'4 1.4
2016-Jul-25 11:21N 40°29' W 073°59'5 4.2
2016-Jul-25 10:10N 40°25' W 073°54'5 7.2
2016-Jul-25 09:31N 40°22' W 073°49'5 3.5
2016-Jul-25 08:14N 40°25' W 073°54'4 6.5
2016-Jul-25 07:33N 40°28' W 073°58'0 0.1
2016-Jul-25 06:33N 40°28' W 073°58'0 0.0
2016-Jul-25 05:33N 40°28' W 073°58'1 0.6
2016-Jul-25 04:32N 40°29' W 073°59'0 0.1
2016-Jul-25 03:11N 40°29' W 073°59'1 0.4
2016-Jul-25 01:09N 40°28' W 073°58'1 1.8
2016-Jul-25 00:33N 40°29' W 073°59'1 1.0
2016-Jul-24 23:28N 40°28' W 073°58'1 0.0
2016-Jul-24 08:24N 40°29' W 073°59'3 4.1
2016-Jul-24 07:33N 40°28' W 074°03'0 0.2
2016-Jul-24 06:21N 40°28' W 074°03'0 0.1
2016-Jul-24 05:33N 40°28' W 074°03'0 0.1
2016-Jul-24 02:07N 40°28' W 074°03'0 0.7
2016-Jul-24 01:33N 40°28' W 074°03'3 0.5
2016-Jul-23 19:10N 40°29' W 073°59'0 0.1
2016-Jul-23 13:07N 40°29' W 073°59'0 0.1
2016-Jul-23 12:10N 40°29' W 073°59'11 6.2
2016-Jul-23 10:23N 40°20' W 073°50'10 5.6
2016-Jul-23 08:33N 40°28' W 073°58'2 2.1
2016-Jul-23 07:31N 40°27' W 074°01'1 0.2
2016-Jul-23 01:33N 40°28' W 074°02'0 0.3
2016-Jul-23 00:28N 40°28' W 074°03'3 0.5
2016-Jul-22 18:33N 40°29' W 073°59'5 4.3
2016-Jul-22 17:28N 40°33' W 074°02'7 7.5
2016-Jul-22 16:33N 40°39' W 074°07'3 3.5
2016-Jul-22 15:33N 40°42' W 074°09'0 0.2
2016-Jul-22 14:33N 40°42' W 074°09'0 0.0
2016-Jul-22 13:33N 40°42' W 074°09'0 0.2
2016-Jul-22 12:33N 40°42' W 074°09'3 3.2
2016-Jul-22 11:33N 40°39' W 074°07'0 0.0
2016-Jul-22 10:33N 40°39' W 074°07'0 0.0
2016-Jul-22 09:33N 40°39' W 074°07'2 2.3
2016-Jul-22 08:33N 40°38' W 074°04'11 2.7
2016-Jul-22 04:25N 40°27' W 074°01'0 0.0
2016-Jul-22 03:33N 40°27' W 074°01'2 0.6
2016-Jul-22 00:31N 40°29' W 073°59'0 0.0
2016-Jul-21 23:03N 40°29' W 073°59'3 3.9
2016-Jul-21 22:15N 40°30' W 074°03'6 8.2
2016-Jul-21 21:33N 40°36' W 074°03'4 4.5
2016-Jul-21 20:33N 40°40' W 074°04'1 1.4
2016-Jul-21 19:33N 40°39' W 074°05'4 4.2
2016-Jul-21 18:33N 40°42' W 074°09'0 0.0
2016-Jul-21 17:33N 40°42' W 074°09'3 3.5
2016-Jul-21 16:33N 40°39' W 074°08'5 5.3
2016-Jul-21 15:33N 40°36' W 074°02'8 1.9
2016-Jul-21 11:33N 40°29' W 073°58'3 1.3
2016-Jul-21 09:32N 40°26' W 073°57'2 2.0
2016-Jul-21 08:32N 40°24' W 073°56'2 1.7
2016-Jul-21 07:24N 40°26' W 073°56'2 0.6
2016-Jul-21 03:26N 40°24' W 073°55'5 1.0
2016-Jul-20 22:14N 40°29' W 073°58'2 2.1
2016-Jul-20 21:17N 40°27' W 073°57'1 1.4
2016-Jul-20 20:32N 40°26' W 073°57'3 0.7
2016-Jul-20 16:23N 40°29' W 073°58'1 1.2
2016-Jul-20 15:20N 40°28' W 073°57'1 0.4
2016-Jul-20 12:19N 40°30' W 073°58'1 1.5
2016-Jul-20 11:33N 40°30' W 073°59'3 0.4
2016-Jul-20 04:23N 40°29' W 073°55'1 0.7
2016-Jul-20 03:31N 40°28' W 073°55'3 0.5
2016-Jul-19 22:15N 40°29' W 073°58'1 0.6
2016-Jul-19 21:09N 40°29' W 073°58'1 1.7
2016-Jul-19 20:33N 40°30' W 073°59'3 0.5
2016-Jul-19 14:23N 40°27' W 073°56'7 3.1
2016-Jul-19 12:12N 40°22' W 073°50'2 3.8
2016-Jul-19 11:33N 40°20' W 073°52'10 4.6
2016-Jul-19 09:30N 40°29' W 073°58'1 0.6
2016-Jul-19 08:25N 40°29' W 073°58'0 0.4
2016-Jul-19 07:30N 40°30' W 073°58'1 0.2
2016-Jul-19 01:21N 40°28' W 073°58'1 0.6
2016-Jul-18 23:32N 40°29' W 073°57'4 3.2
2016-Jul-18 22:14N 40°25' W 073°55'4 0.5
2016-Jul-18 13:08N 40°29' W 073°58'1 1.7
2016-Jul-18 12:30N 40°30' W 073°59'2 2.2
2016-Jul-18 11:33N 40°28' W 073°57'1 1.4
2016-Jul-18 10:31N 40°30' W 073°58'2 1.7
2016-Jul-18 09:32N 40°30' W 073°60'2 0.4
2016-Jul-18 05:24N 40°29' W 073°58'3 1.0
2016-Jul-18 02:33N 40°28' W 073°54'  
Track history (hours):
 
Tides and Currents Weather Stations Pressure Air Temp Water Temp Dewpoint Dewpoint Depression Visibility Wind Speed Wind Dir Waves Ship Positions

Mary Alice

Owner: Donjon Marine Co., Inc., HILLSIDE, NJ. More information available from US FCC via Universal Licensing System and Coast Guard Vessel Documentation Center.

Last reported at 2016-Jul-27 12:07 UTC. Time now 2016-Jul-27 19:15 UTC.
Position N 40°29' W 073°59'.

Length 21 m; draft 4.8 m.

Type: Towing. MMSI: 366744020.

Date/timePositionNaut miles runAvg speedWind from/ knotsBaromVisibWave heightAir tempDewpointWater temp
2016-Jul-27 12:07N 40°29' W 073°59'1 0.0
2016-Jul-26 20:05N 40°29' W 073°60'2 0.2
2016-Jul-26 13:21N 40°27' W 074°01'0 0.0
2016-Jul-26 12:33N 40°27' W 074°01'0 0.0
2016-Jul-26 11:31N 40°27' W 074°01'1 0.1
2016-Jul-26 04:29N 40°28' W 074°02'1 0.6
2016-Jul-26 03:09N 40°28' W 074°03'0 0.4
2016-Jul-26 02:33N 40°28' W 074°03'0 0.3
2016-Jul-26 01:26N 40°28' W 074°03'0 0.2
2016-Jul-26 00:22N 40°28' W 074°03'4 0.7
2016-Jul-25 19:14N 40°29' W 073°58'1 0.9
2016-Jul-25 18:31N 40°29' W 073°59'5 4.3
2016-Jul-25 17:24N 40°33' W 074°02'5 6.5
2016-Jul-25 16:33N 40°38' W 074°04'2 2.3
2016-Jul-25 15:34N 40°41' W 074°04'8 8.1
2016-Jul-25 14:31N 40°32' W 074°02'4 1.4
2016-Jul-25 11:21N 40°29' W 073°59'5 4.2
2016-Jul-25 10:10N 40°25' W 073°54'5 7.2
2016-Jul-25 09:31N 40°22' W 073°49'5 3.5
2016-Jul-25 08:14N 40°25' W 073°54'4 6.5
2016-Jul-25 07:33N 40°28' W 073°58'0 0.1
2016-Jul-25 06:33N 40°28' W 073°58'0 0.0
2016-Jul-25 05:33N 40°28' W 073°58'1 0.6
2016-Jul-25 04:32N 40°29' W 073°59'0 0.1
2016-Jul-25 03:11N 40°29' W 073°59'1 0.4
2016-Jul-25 01:09N 40°28' W 073°58'1 1.8
2016-Jul-25 00:33N 40°29' W 073°59'1 1.0
2016-Jul-24 23:28N 40°28' W 073°58'1 0.0
2016-Jul-24 08:24N 40°29' W 073°59'3 4.1
2016-Jul-24 07:33N 40°28' W 074°03'0 0.2
2016-Jul-24 06:21N 40°28' W 074°03'0 0.1
2016-Jul-24 05:33N 40°28' W 074°03'0 0.1
2016-Jul-24 02:07N 40°28' W 074°03'0 0.7
2016-Jul-24 01:33N 40°28' W 074°03'3 0.5
2016-Jul-23 19:10N 40°29' W 073°59'0 0.1
2016-Jul-23 13:07N 40°29' W 073°59'0 0.1
2016-Jul-23 12:10N 40°29' W 073°59'11 6.2
2016-Jul-23 10:23N 40°20' W 073°50'10 5.6
2016-Jul-23 08:33N 40°28' W 073°58'2 2.1
2016-Jul-23 07:31N 40°27' W 074°01'1 0.2
2016-Jul-23 01:33N 40°28' W 074°02'0 0.3
2016-Jul-23 00:28N 40°28' W 074°03'3 0.5
2016-Jul-22 18:33N 40°29' W 073°59'5 4.3
2016-Jul-22 17:28N 40°33' W 074°02'7 7.5
2016-Jul-22 16:33N 40°39' W 074°07'3 3.5
2016-Jul-22 15:33N 40°42' W 074°09'0 0.2
2016-Jul-22 14:33N 40°42' W 074°09'0 0.0
2016-Jul-22 13:33N 40°42' W 074°09'0 0.2
2016-Jul-22 12:33N 40°42' W 074°09'3 3.2
2016-Jul-22 11:33N 40°39' W 074°07'0 0.0
2016-Jul-22 10:33N 40°39' W 074°07'0 0.0
2016-Jul-22 09:33N 40°39' W 074°07'2 2.3
2016-Jul-22 08:33N 40°38' W 074°04'11 2.7
2016-Jul-22 04:25N 40°27' W 074°01'0 0.0
2016-Jul-22 03:33N 40°27' W 074°01'2 0.6
2016-Jul-22 00:31N 40°29' W 073°59'0 0.0
2016-Jul-21 23:03N 40°29' W 073°59'3 3.9
2016-Jul-21 22:15N 40°30' W 074°03'6 8.2
2016-Jul-21 21:33N 40°36' W 074°03'4 4.5
2016-Jul-21 20:33N 40°40' W 074°04'1 1.4
2016-Jul-21 19:33N 40°39' W 074°05'4 4.2
2016-Jul-21 18:33N 40°42' W 074°09'0 0.0
2016-Jul-21 17:33N 40°42' W 074°09'3 3.5
2016-Jul-21 16:33N 40°39' W 074°08'5 5.3
2016-Jul-21 15:33N 40°36' W 074°02'8 1.9
2016-Jul-21 11:33N 40°29' W 073°58'3 1.3
2016-Jul-21 09:32N 40°26' W 073°57'2 2.0
2016-Jul-21 08:32N 40°24' W 073°56'2 1.7
2016-Jul-21 07:24N 40°26' W 073°56'2 0.6
2016-Jul-21 03:26N 40°24' W 073°55'5 1.0
2016-Jul-20 22:14N 40°29' W 073°58'2 2.1
2016-Jul-20 21:17N 40°27' W 073°57'1 1.4
2016-Jul-20 20:32N 40°26' W 073°57'3 0.7
2016-Jul-20 16:23N 40°29' W 073°58'1 1.2
2016-Jul-20 15:20N 40°28' W 073°57'1 0.4
2016-Jul-20 12:19N 40°30' W 073°58'1 1.5
2016-Jul-20 11:33N 40°30' W 073°59'3 0.4
2016-Jul-20 04:23N 40°29' W 073°55'1 0.7
2016-Jul-20 03:31N 40°28' W 073°55'3 0.5
2016-Jul-19 22:15N 40°29' W 073°58'1 0.6
2016-Jul-19 21:09N 40°29' W 073°58'1 1.7
2016-Jul-19 20:33N 40°30' W 073°59'3 0.5
2016-Jul-19 14:23N 40°27' W 073°56'7 3.1
2016-Jul-19 12:12N 40°22' W 073°50'2 3.8
2016-Jul-19 11:33N 40°20' W 073°52'10 4.6
2016-Jul-19 09:30N 40°29' W 073°58'1 0.6
2016-Jul-19 08:25N 40°29' W 073°58'0 0.4
2016-Jul-19 07:30N 40°30' W 073°58'1 0.2
2016-Jul-19 01:21N 40°28' W 073°58'1 0.6
2016-Jul-18 23:32N 40°29' W 073°57'4 3.2
2016-Jul-18 22:14N 40°25' W 073°55'4 0.5
2016-Jul-18 13:08N 40°29' W 073°58'1 1.7
2016-Jul-18 12:30N 40°30' W 073°59'2 2.2
2016-Jul-18 11:33N 40°28' W 073°57'1 1.4
2016-Jul-18 10:31N 40°30' W 073°58'2 1.7
2016-Jul-18 09:32N 40°30' W 073°60'2 0.4
2016-Jul-18 05:24N 40°29' W 073°58'3 1.0
2016-Jul-18 02:33N 40°28' W 073°54'  

Dump ship's entire track history